createdAt,value
2023-02-02T00:00:07.997Z,1005.94
2023-02-02T00:01:07.952Z,1005.93
2023-02-02T00:02:07.960Z,1005.95
2023-02-02T00:03:07.955Z,1005.98
2023-02-02T00:04:08.043Z,1006.01
2023-02-02T00:05:08.014Z,1005.99
2023-02-02T00:06:07.914Z,1005.93
2023-02-02T00:07:07.886Z,1005.92
2023-02-02T00:08:07.946Z,1005.95
2023-02-02T00:09:07.865Z,1005.90
2023-02-02T00:10:07.885Z,1005.93
2023-02-02T00:11:08.207Z,1005.92
2023-02-02T00:12:07.856Z,1005.95
2023-02-02T00:13:07.853Z,1006.00
2023-02-02T00:14:07.834Z,1005.89
2023-02-02T00:15:07.869Z,1005.99
2023-02-02T00:16:07.971Z,1005.98
2023-02-02T00:17:08.696Z,1005.97
2023-02-02T00:18:07.830Z,1005.96
2023-02-02T00:19:07.771Z,1006.00
2023-02-02T00:20:07.827Z,1005.98
2023-02-02T00:21:07.781Z,1006.01
2023-02-02T00:22:07.787Z,1005.95
2023-02-02T00:23:07.743Z,1006.04
2023-02-02T00:24:08.527Z,1005.97
2023-02-02T00:25:07.813Z,1005.97
2023-02-02T00:26:07.713Z,1006.00
2023-02-02T00:27:07.693Z,1005.98
2023-02-02T00:28:07.692Z,1005.96
2023-02-02T00:29:07.670Z,1005.97
2023-02-02T00:30:07.692Z,1005.95
2023-02-02T00:31:07.741Z,1006.01
2023-02-02T00:32:07.665Z,1006.01
2023-02-02T00:33:07.623Z,1006.00
2023-02-02T00:34:07.629Z,1006.00
2023-02-02T00:35:08.151Z,1005.98
2023-02-02T00:36:07.637Z,1005.98
2023-02-02T00:37:07.597Z,1006.00
2023-02-02T00:38:07.623Z,1006.01
2023-02-02T00:39:07.597Z,1005.97
2023-02-02T00:40:07.555Z,1006.01
2023-02-02T00:41:07.543Z,1006.01
2023-02-02T00:42:07.836Z,1006.00
2023-02-02T00:43:07.511Z,1006.06
2023-02-02T00:44:07.532Z,1006.01
2023-02-02T00:45:07.488Z,1006.03
2023-02-02T00:46:07.525Z,1006.01
2023-02-02T00:47:07.496Z,1006.03
2023-02-02T00:48:07.500Z,1006.03
2023-02-02T00:49:07.502Z,1006.05
2023-02-02T00:50:07.457Z,1006.00
2023-02-02T00:51:07.450Z,1006.01
2023-02-02T00:52:07.443Z,1006.02
2023-02-02T00:53:07.404Z,1005.99
2023-02-02T00:54:07.407Z,1006.01
2023-02-02T00:55:07.400Z,1006.04
2023-02-02T00:56:07.434Z,1006.01
2023-02-02T00:57:07.475Z,1006.02
2023-02-02T00:58:07.384Z,1006.01
2023-02-02T00:59:07.366Z,1006.01
2023-02-02T01:00:07.343Z,1006.00
2023-02-02T01:01:07.379Z,1006.02
2023-02-02T01:02:07.372Z,1006.04
2023-02-02T01:03:07.354Z,1006.01
2023-02-02T01:04:07.313Z,1006.02
2023-02-02T01:05:07.301Z,1006.03
2023-02-02T01:06:07.275Z,1006.06
2023-02-02T01:07:07.288Z,1006.04
2023-02-02T01:08:07.280Z,1006.10
2023-02-02T01:09:07.487Z,1006.10
2023-02-02T01:10:07.295Z,1006.09
2023-02-02T01:11:07.230Z,1006.08
2023-02-02T01:12:07.218Z,1006.15
2023-02-02T01:13:07.230Z,1006.13
2023-02-02T01:14:07.229Z,1006.10
2023-02-02T01:15:07.197Z,1006.09
2023-02-02T01:16:07.224Z,1006.11
2023-02-02T01:17:07.160Z,1006.07
2023-02-02T01:18:07.160Z,1006.10
2023-02-02T01:19:07.153Z,1006.09
2023-02-02T01:20:07.147Z,1006.08
2023-02-02T01:21:07.125Z,1006.08
2023-02-02T01:22:07.123Z,1006.06
2023-02-02T01:23:07.101Z,1006.05
2023-02-02T01:24:07.119Z,1006.04
2023-02-02T01:25:07.098Z,1006.07
2023-02-02T01:26:07.080Z,1006.09
2023-02-02T01:27:07.085Z,1006.12
2023-02-02T01:28:07.050Z,1006.17
2023-02-02T01:29:07.103Z,1006.18
2023-02-02T01:30:07.051Z,1006.18
2023-02-02T01:31:07.083Z,1006.23
2023-02-02T01:32:07.024Z,1006.24
2023-02-02T01:33:06.999Z,1006.26
2023-02-02T01:34:06.995Z,1006.28
2023-02-02T01:35:07.020Z,1006.27
2023-02-02T01:36:06.993Z,1006.25
2023-02-02T01:37:06.953Z,1006.24
2023-02-02T01:38:06.930Z,1006.27
2023-02-02T01:39:06.995Z,1006.29
2023-02-02T01:40:06.938Z,1006.25
2023-02-02T01:41:06.948Z,1006.27
2023-02-02T01:42:06.909Z,1006.28
2023-02-02T01:43:06.900Z,1006.29
2023-02-02T01:44:06.884Z,1006.29
2023-02-02T01:45:06.875Z,1006.30
2023-02-02T01:46:06.976Z,1006.28
2023-02-02T01:47:06.869Z,1006.33
2023-02-02T01:48:06.846Z,1006.33
2023-02-02T01:49:06.832Z,1006.34
2023-02-02T01:50:06.833Z,1006.31
2023-02-02T01:51:07.252Z,1006.33
2023-02-02T01:52:06.817Z,1006.36
2023-02-02T01:53:06.835Z,1006.38
2023-02-02T01:54:06.785Z,1006.37
2023-02-02T01:55:07.379Z,1006.38
2023-02-02T01:56:06.783Z,1006.37
2023-02-02T01:57:06.758Z,1006.41
2023-02-02T01:58:06.947Z,1006.39
2023-02-02T01:59:06.728Z,1006.33
2023-02-02T02:00:06.740Z,1006.39
2023-02-02T02:01:06.736Z,1006.39
2023-02-02T02:02:06.801Z,1006.39
2023-02-02T02:03:06.686Z,1006.38
2023-02-02T02:04:06.705Z,1006.40
2023-02-02T02:05:06.687Z,1006.42
2023-02-02T02:06:06.702Z,1006.43
2023-02-02T02:07:06.769Z,1006.46
2023-02-02T02:08:06.815Z,1006.45
2023-02-02T02:09:06.647Z,1006.44
2023-02-02T02:10:06.606Z,1006.41
2023-02-02T02:11:06.603Z,1006.41
2023-02-02T02:12:06.585Z,1006.39
2023-02-02T02:13:06.590Z,1006.40
2023-02-02T02:14:06.577Z,1006.40
2023-02-02T02:15:06.550Z,1006.40
2023-02-02T02:16:06.577Z,1006.40
2023-02-02T02:17:06.586Z,1006.41
2023-02-02T02:18:06.529Z,1006.44
2023-02-02T02:19:06.524Z,1006.43
2023-02-02T02:20:06.525Z,1006.41
2023-02-02T02:21:07.920Z,1006.39
2023-02-02T02:22:06.478Z,1006.40
2023-02-02T02:23:06.484Z,1006.36
2023-02-02T02:24:06.495Z,1006.34
2023-02-02T02:25:06.463Z,1006.30
2023-02-02T02:26:06.500Z,1006.33
2023-02-02T02:27:06.426Z,1006.37
2023-02-02T02:28:06.462Z,1006.40
2023-02-02T02:29:06.421Z,1006.42
2023-02-02T02:30:06.412Z,1006.41
2023-02-02T02:31:06.466Z,1006.39
2023-02-02T02:32:06.390Z,1006.35
2023-02-02T02:33:06.393Z,1006.42
2023-02-02T02:34:06.387Z,1006.46
2023-02-02T02:35:06.347Z,1006.50
2023-02-02T02:36:06.357Z,1006.52
2023-02-02T02:37:06.320Z,1006.54
2023-02-02T02:38:06.313Z,1006.52
2023-02-02T02:39:06.326Z,1006.55
2023-02-02T02:40:06.313Z,1006.54
2023-02-02T02:41:06.276Z,1006.50
2023-02-02T02:42:06.302Z,1006.48
2023-02-02T02:43:06.284Z,1006.47
2023-02-02T02:44:06.277Z,1006.51
2023-02-02T02:45:06.247Z,1006.47
2023-02-02T02:46:06.303Z,1006.48
2023-02-02T02:47:06.221Z,1006.44
2023-02-02T02:48:06.257Z,1006.41
2023-02-02T02:49:06.202Z,1006.42
2023-02-02T02:50:06.242Z,1006.45
2023-02-02T02:51:06.176Z,1006.50
2023-02-02T02:52:06.295Z,1006.50
2023-02-02T02:53:06.164Z,1006.47
2023-02-02T02:54:06.172Z,1006.44
2023-02-02T02:55:06.195Z,1006.41
2023-02-02T02:56:06.155Z,1006.42
2023-02-02T02:57:06.135Z,1006.44
2023-02-02T02:58:06.147Z,1006.42
2023-02-02T02:59:06.078Z,1006.42
2023-02-02T03:00:06.102Z,1006.42
2023-02-02T03:01:06.086Z,1006.44
2023-02-02T03:02:06.108Z,1006.45
2023-02-02T03:03:06.073Z,1006.43
2023-02-02T03:04:06.108Z,1006.42
2023-02-02T03:05:06.024Z,1006.40
2023-02-02T03:06:06.039Z,1006.38
2023-02-02T03:07:05.990Z,1006.39
2023-02-02T03:08:06.061Z,1006.41
2023-02-02T03:09:06.004Z,1006.38
2023-02-02T03:10:05.990Z,1006.41
2023-02-02T03:11:05.967Z,1006.39
2023-02-02T03:12:05.967Z,1006.37
2023-02-02T03:13:05.976Z,1006.36
2023-02-02T03:14:05.949Z,1006.34
2023-02-02T03:15:05.913Z,1006.37
2023-02-02T03:16:05.959Z,1006.38
2023-02-02T03:17:05.918Z,1006.38
2023-02-02T03:18:05.900Z,1006.36
2023-02-02T03:19:05.916Z,1006.37
2023-02-02T03:20:05.922Z,1006.35
2023-02-02T03:21:05.890Z,1006.35
2023-02-02T03:22:05.840Z,1006.33
2023-02-02T03:23:05.846Z,1006.28
2023-02-02T03:24:05.846Z,1006.27
2023-02-02T03:25:05.817Z,1006.27
2023-02-02T03:26:05.826Z,1006.29
2023-02-02T03:27:05.821Z,1006.30
2023-02-02T03:28:05.811Z,1006.31
2023-02-02T03:29:05.791Z,1006.30
2023-02-02T03:30:05.768Z,1006.32
2023-02-02T03:31:05.902Z,1006.28
2023-02-02T03:32:05.812Z,1006.25
2023-02-02T03:33:05.795Z,1006.25
2023-02-02T03:34:05.722Z,1006.23
2023-02-02T03:35:05.741Z,1006.20
2023-02-02T03:36:05.704Z,1006.22
2023-02-02T03:37:05.689Z,1006.27
2023-02-02T03:38:05.676Z,1006.29
2023-02-02T03:39:05.668Z,1006.28
2023-02-02T03:40:05.665Z,1006.28
2023-02-02T03:41:05.660Z,1006.26
2023-02-02T03:42:05.651Z,1006.28
2023-02-02T03:43:05.621Z,1006.31
2023-02-02T03:44:05.634Z,1006.34
2023-02-02T03:45:05.610Z,1006.33
2023-02-02T03:46:05.684Z,1006.33
2023-02-02T03:47:05.573Z,1006.35
2023-02-02T03:48:05.580Z,1006.35
2023-02-02T03:49:05.594Z,1006.39
2023-02-02T03:50:05.627Z,1006.39
2023-02-02T03:51:05.576Z,1006.38
2023-02-02T03:52:05.530Z,1006.38
2023-02-02T03:53:05.544Z,1006.36
2023-02-02T03:54:05.542Z,1006.35
2023-02-02T03:55:05.538Z,1006.39
2023-02-02T03:56:05.496Z,1006.35
2023-02-02T03:57:05.507Z,1006.39
2023-02-02T03:58:05.457Z,1006.40
2023-02-02T03:59:05.558Z,1006.41
2023-02-02T04:00:05.451Z,1006.44
2023-02-02T04:01:05.459Z,1006.44
2023-02-02T04:02:05.429Z,1006.44
2023-02-02T04:03:05.519Z,1006.43
2023-02-02T04:04:05.398Z,1006.46
2023-02-02T04:05:05.408Z,1006.45
2023-02-02T04:06:05.388Z,1006.46
2023-02-02T04:07:05.386Z,1006.49
2023-02-02T04:08:05.346Z,1006.50
2023-02-02T04:09:05.458Z,1006.51
2023-02-02T04:10:05.348Z,1006.52
2023-02-02T04:11:05.321Z,1006.53
2023-02-02T04:12:05.322Z,1006.59
2023-02-02T04:13:05.316Z,1006.59
2023-02-02T04:14:05.745Z,1006.60
2023-02-02T04:15:05.337Z,1006.56
2023-02-02T04:16:05.350Z,1006.52
2023-02-02T04:17:05.267Z,1006.50
2023-02-02T04:18:05.243Z,1006.51
2023-02-02T04:19:05.461Z,1006.47
2023-02-02T04:20:05.274Z,1006.49
2023-02-02T04:21:05.239Z,1006.48
2023-02-02T04:22:05.209Z,1006.48
2023-02-02T04:23:05.199Z,1006.49
2023-02-02T04:24:05.201Z,1006.48
2023-02-02T04:25:05.213Z,1006.45
2023-02-02T04:26:05.159Z,1006.45
2023-02-02T04:27:05.173Z,1006.47
2023-02-02T04:28:05.153Z,1006.53
2023-02-02T04:29:05.158Z,1006.47
2023-02-02T04:30:05.117Z,1006.44
2023-02-02T04:31:05.148Z,1006.44
2023-02-02T04:32:05.120Z,1006.46
2023-02-02T04:33:05.106Z,1006.44
2023-02-02T04:34:05.089Z,1006.44
2023-02-02T04:35:05.072Z,1006.45
2023-02-02T04:36:05.054Z,1006.44
2023-02-02T04:37:05.048Z,1006.44
2023-02-02T04:38:05.225Z,1006.44
2023-02-02T04:39:05.039Z,1006.44
2023-02-02T04:40:05.049Z,1006.43
2023-02-02T04:41:05.020Z,1006.43
2023-02-02T04:42:05.013Z,1006.41
2023-02-02T04:43:04.991Z,1006.40
2023-02-02T04:44:04.996Z,1006.43
2023-02-02T04:45:04.991Z,1006.43
2023-02-02T04:46:04.961Z,1006.42
2023-02-02T04:47:04.945Z,1006.44
2023-02-02T04:48:04.954Z,1006.45
2023-02-02T04:49:04.953Z,1006.42
2023-02-02T04:50:04.913Z,1006.43
2023-02-02T04:51:04.900Z,1006.38
2023-02-02T04:52:04.904Z,1006.37
2023-02-02T04:53:04.938Z,1006.34
2023-02-02T04:54:04.883Z,1006.37
2023-02-02T04:55:04.886Z,1006.37
2023-02-02T04:56:04.865Z,1006.37
2023-02-02T04:57:04.877Z,1006.40
2023-02-02T04:58:04.842Z,1006.42
2023-02-02T04:59:04.851Z,1006.39
2023-02-02T05:00:04.802Z,1006.37
2023-02-02T05:01:04.856Z,1006.40
2023-02-02T05:02:04.803Z,1006.38
2023-02-02T05:03:04.800Z,1006.36
2023-02-02T05:04:04.801Z,1006.37
2023-02-02T05:05:04.757Z,1006.37
2023-02-02T05:06:04.741Z,1006.37
2023-02-02T05:07:04.734Z,1006.37
2023-02-02T05:08:04.730Z,1006.37
2023-02-02T05:09:04.737Z,1006.35
2023-02-02T05:10:04.728Z,1006.34
2023-02-02T05:11:04.683Z,1006.32
2023-02-02T05:12:05.464Z,1006.33
2023-02-02T05:13:04.672Z,1006.33
2023-02-02T05:14:04.667Z,1006.33
2023-02-02T05:15:04.666Z,1006.33
2023-02-02T05:16:04.638Z,1006.33
2023-02-02T05:17:04.639Z,1006.34
2023-02-02T05:18:04.596Z,1006.36
2023-02-02T05:19:04.604Z,1006.36
2023-02-02T05:20:04.607Z,1006.36
2023-02-02T05:21:04.596Z,1006.36
2023-02-02T05:22:04.673Z,1006.37
2023-02-02T05:23:04.555Z,1006.39
2023-02-02T05:24:04.694Z,1006.38
2023-02-02T05:25:04.554Z,1006.38
2023-02-02T05:26:04.531Z,1006.38
2023-02-02T05:27:04.518Z,1006.35
2023-02-02T05:28:04.593Z,1006.36
2023-02-02T05:29:04.511Z,1006.36
2023-02-02T05:30:04.575Z,1006.36
2023-02-02T05:31:04.536Z,1006.40
2023-02-02T05:32:04.560Z,1006.42
2023-02-02T05:33:04.471Z,1006.40
2023-02-02T05:34:04.479Z,1006.43
2023-02-02T05:35:04.454Z,1006.44
2023-02-02T05:36:04.437Z,1006.43
2023-02-02T05:37:04.423Z,1006.46
2023-02-02T05:38:04.457Z,1006.47
2023-02-02T05:39:04.399Z,1006.42
2023-02-02T05:40:04.418Z,1006.41
2023-02-02T05:41:04.405Z,1006.43
2023-02-02T05:42:04.352Z,1006.45
2023-02-02T05:43:04.376Z,1006.48
2023-02-02T05:44:04.372Z,1006.49
2023-02-02T05:45:04.484Z,1006.48
2023-02-02T05:46:04.383Z,1006.49
2023-02-02T05:47:04.348Z,1006.47
2023-02-02T05:48:04.303Z,1006.47
2023-02-02T05:49:04.383Z,1006.49
2023-02-02T05:50:04.312Z,1006.47
2023-02-02T05:51:04.490Z,1006.49
2023-02-02T05:52:04.245Z,1006.48
2023-02-02T05:53:04.259Z,1006.53
2023-02-02T05:54:04.229Z,1006.52
2023-02-02T05:55:04.236Z,1006.50
2023-02-02T05:56:04.255Z,1006.51
2023-02-02T05:57:04.207Z,1006.56
2023-02-02T05:58:04.200Z,1006.53
2023-02-02T05:59:04.225Z,1006.54
2023-02-02T06:00:04.159Z,1006.58
2023-02-02T06:01:04.251Z,1006.53
2023-02-02T06:02:04.145Z,1006.56
2023-02-02T06:03:04.297Z,1006.59
2023-02-02T06:04:04.169Z,1006.58
2023-02-02T06:05:04.111Z,1006.56
2023-02-02T06:06:06.660Z,1006.57
2023-02-02T06:07:04.269Z,1006.54
2023-02-02T06:08:04.138Z,1006.58
2023-02-02T06:09:04.075Z,1006.55
2023-02-02T06:10:04.055Z,1006.54
2023-02-02T06:11:04.070Z,1006.56
2023-02-02T06:12:04.090Z,1006.57
2023-02-02T06:13:04.028Z,1006.55
2023-02-02T06:14:04.018Z,1006.54
2023-02-02T06:15:04.010Z,1006.55
2023-02-02T06:16:04.124Z,1006.55
2023-02-02T06:17:04.077Z,1006.52
2023-02-02T06:18:03.986Z,1006.56
2023-02-02T06:19:03.945Z,1006.53
2023-02-02T06:20:04.058Z,1006.58
2023-02-02T06:21:04.051Z,1006.54
2023-02-02T06:22:03.956Z,1006.53
2023-02-02T06:23:04.033Z,1006.56
2023-02-02T06:24:03.909Z,1006.55
2023-02-02T06:25:03.903Z,1006.54
2023-02-02T06:26:03.885Z,1006.53
2023-02-02T06:27:03.885Z,1006.59
2023-02-02T06:28:04.067Z,1006.59
2023-02-02T06:29:03.848Z,1006.59
2023-02-02T06:30:03.974Z,1006.67
2023-02-02T06:31:03.948Z,1006.62
2023-02-02T06:32:03.940Z,1006.67
2023-02-02T06:33:03.826Z,1006.64
2023-02-02T06:34:05.818Z,1006.67
2023-02-02T06:35:03.971Z,1006.68
2023-02-02T06:36:03.799Z,1006.65
2023-02-02T06:37:03.787Z,1006.67
2023-02-02T06:38:03.772Z,1006.69
2023-02-02T06:39:03.748Z,1006.73
2023-02-02T06:40:03.771Z,1006.72
2023-02-02T06:41:03.799Z,1006.69
2023-02-02T06:42:19.223Z,1006.70
2023-02-02T06:43:03.741Z,1006.66
2023-02-02T06:44:03.879Z,1006.68
2023-02-02T06:45:03.742Z,1006.73
2023-02-02T06:46:03.730Z,1006.70
2023-02-02T06:47:03.729Z,1006.71
2023-02-02T06:48:03.884Z,1006.72
2023-02-02T06:49:03.663Z,1006.72
2023-02-02T06:50:03.620Z,1006.72
2023-02-02T06:51:03.624Z,1006.75
2023-02-02T06:52:03.644Z,1006.78
2023-02-02T06:53:03.604Z,1006.76
2023-02-02T06:54:03.672Z,1006.75
2023-02-02T06:55:03.543Z,1006.76
2023-02-02T06:56:03.504Z,1006.78
2023-02-02T06:57:03.550Z,1006.79
2023-02-02T06:58:03.600Z,1006.77
2023-02-02T06:59:03.514Z,1006.74
2023-02-02T07:00:03.469Z,1006.73
2023-02-02T07:01:03.482Z,1006.74
2023-02-02T07:02:03.462Z,1006.79
2023-02-02T07:03:03.545Z,1006.77
2023-02-02T07:04:03.482Z,1006.83
2023-02-02T07:05:03.443Z,1006.88
2023-02-02T07:06:03.442Z,1006.92
2023-02-02T07:07:03.415Z,1006.87
2023-02-02T07:08:03.393Z,1006.89
2023-02-02T07:09:03.673Z,1006.90
2023-02-02T07:10:03.398Z,1006.92
2023-02-02T07:11:13.825Z,1006.90
2023-02-02T07:12:03.370Z,1006.92
2023-02-02T07:13:03.325Z,1006.92
2023-02-02T07:14:03.315Z,1006.95
2023-02-02T07:15:03.492Z,1006.92
2023-02-02T07:16:03.332Z,1006.93
2023-02-02T07:17:03.311Z,1006.93
2023-02-02T07:18:03.286Z,1006.93
2023-02-02T07:19:03.270Z,1006.91
2023-02-02T07:20:03.255Z,1006.93
2023-02-02T07:21:03.250Z,1006.94
2023-02-02T07:22:03.252Z,1006.97
2023-02-02T07:23:03.246Z,1006.95
2023-02-02T07:24:03.214Z,1006.96
2023-02-02T07:25:03.211Z,1006.96
2023-02-02T07:26:03.243Z,1006.96
2023-02-02T07:27:03.214Z,1006.96
2023-02-02T07:28:03.193Z,1006.99
2023-02-02T07:29:03.157Z,1006.95
2023-02-02T07:30:03.173Z,1006.98
2023-02-02T07:31:03.293Z,1006.99
2023-02-02T07:32:03.155Z,1006.97
2023-02-02T07:33:03.162Z,1006.97
2023-02-02T07:34:03.150Z,1006.98
2023-02-02T07:35:03.096Z,1006.98
2023-02-02T07:36:03.102Z,1006.99
2023-02-02T07:37:03.099Z,1007.01
2023-02-02T07:38:03.078Z,1007.05
2023-02-02T07:39:03.053Z,1007.04
2023-02-02T07:40:03.095Z,1007.07
2023-02-02T07:41:03.157Z,1007.06
2023-02-02T07:42:03.016Z,1007.07
2023-02-02T07:43:03.028Z,1007.10
2023-02-02T07:44:03.000Z,1007.10
2023-02-02T07:45:36.510Z,1007.14
2023-02-02T07:46:03.007Z,1007.13
2023-02-02T07:47:02.991Z,1007.15
2023-02-02T07:48:03.011Z,1007.19
2023-02-02T07:49:02.959Z,1007.19
2023-02-02T07:50:02.993Z,1007.22
2023-02-02T07:51:02.951Z,1007.17
2023-02-02T07:52:02.926Z,1007.23
2023-02-02T07:53:02.933Z,1007.22
2023-02-02T07:54:02.939Z,1007.24
2023-02-02T07:55:14.407Z,1007.23
2023-02-02T07:56:03.141Z,1007.24
2023-02-02T07:57:02.892Z,1007.29
2023-02-02T07:58:03.155Z,1007.23
2023-02-02T07:59:02.913Z,1007.26
2023-02-02T08:00:02.865Z,1007.24
2023-02-02T08:01:02.915Z,1007.27
2023-02-02T08:02:02.913Z,1007.25
2023-02-02T08:03:02.869Z,1007.26
2023-02-02T08:04:02.902Z,1007.26
2023-02-02T08:05:02.801Z,1007.27
2023-02-02T08:06:03.021Z,1007.28
2023-02-02T08:07:02.831Z,1007.30
2023-02-02T08:08:02.744Z,1007.31
2023-02-02T08:09:02.763Z,1007.33
2023-02-02T08:10:02.716Z,1007.34
2023-02-02T08:11:02.712Z,1007.33
2023-02-02T08:12:02.835Z,1007.35
2023-02-02T08:13:02.672Z,1007.40
2023-02-02T08:14:02.764Z,1007.39
2023-02-02T08:15:02.692Z,1007.42
2023-02-02T08:16:02.727Z,1007.41
2023-02-02T08:17:02.791Z,1007.38
2023-02-02T08:18:02.677Z,1007.40
2023-02-02T08:19:02.626Z,1007.40
2023-02-02T08:20:02.624Z,1007.43
2023-02-02T08:21:02.637Z,1007.45
2023-02-02T08:22:02.657Z,1007.47
2023-02-02T08:23:02.590Z,1007.47
2023-02-02T08:24:02.612Z,1007.49
2023-02-02T08:25:02.567Z,1007.50
2023-02-02T08:26:02.799Z,1007.53
2023-02-02T08:27:02.552Z,1007.51
2023-02-02T08:28:02.537Z,1007.48
2023-02-02T08:29:02.509Z,1007.50
2023-02-02T08:30:02.523Z,1007.54
2023-02-02T08:31:02.493Z,1007.56
2023-02-02T08:32:02.551Z,1007.57
2023-02-02T08:33:02.501Z,1007.60
2023-02-02T08:34:02.477Z,1007.63
2023-02-02T08:35:02.456Z,1007.63
2023-02-02T08:36:02.464Z,1007.64
2023-02-02T08:37:02.441Z,1007.65
2023-02-02T08:38:02.463Z,1007.67
2023-02-02T08:39:03.279Z,1007.72
2023-02-02T08:40:02.468Z,1007.74
2023-02-02T08:41:02.396Z,1007.73
2023-02-02T08:42:02.405Z,1007.73
2023-02-02T08:43:02.396Z,1007.72
2023-02-02T08:44:02.387Z,1007.73
2023-02-02T08:46:02.654Z,1007.73
2023-02-02T08:46:08.245Z,1007.74
2023-02-02T08:47:02.423Z,1007.80
2023-02-02T08:48:11.713Z,1007.84
2023-02-02T08:49:02.340Z,1007.88
2023-02-02T08:50:02.324Z,1007.91
2023-02-02T08:51:02.284Z,1007.91
2023-02-02T08:52:03.003Z,1007.88
2023-02-02T08:53:02.290Z,1007.85
2023-02-02T08:54:02.300Z,1007.75
2023-02-02T08:55:02.263Z,1007.92
2023-02-02T08:56:02.243Z,1007.94
2023-02-02T08:57:02.215Z,1007.96
2023-02-02T08:58:02.338Z,1008.05
2023-02-02T08:59:02.199Z,1008.00
2023-02-02T09:00:02.190Z,1007.91
2023-02-02T09:01:02.357Z,1007.84
2023-02-02T09:02:02.240Z,1008.03
2023-02-02T09:03:02.295Z,1008.29
2023-02-02T09:04:02.145Z,1008.30
2023-02-02T09:05:02.168Z,1008.20
2023-02-02T09:06:02.141Z,1008.16
2023-02-02T09:07:02.209Z,1008.07
2023-02-02T09:08:02.206Z,1007.98
2023-02-02T09:09:02.198Z,1008.07
2023-02-02T09:10:02.120Z,1008.11
2023-02-02T09:11:02.146Z,1008.17
2023-02-02T09:12:02.127Z,1008.14
2023-02-02T09:13:02.071Z,1008.18
2023-02-02T09:14:02.106Z,1008.25
2023-02-02T09:15:02.073Z,1008.23
2023-02-02T09:16:02.041Z,1008.21
2023-02-02T09:17:02.068Z,1008.20
2023-02-02T09:18:02.009Z,1008.25
2023-02-02T09:19:02.084Z,1008.27
2023-02-02T09:20:01.996Z,1008.25
2023-02-02T09:21:01.958Z,1008.25
2023-02-02T09:22:02.062Z,1008.24
2023-02-02T09:23:01.934Z,1008.25
2023-02-02T09:24:01.936Z,1008.21
2023-02-02T09:25:01.974Z,1008.24
2023-02-02T09:26:01.922Z,1008.28
2023-02-02T09:27:02.024Z,1008.26
2023-02-02T09:28:01.918Z,1008.34
2023-02-02T09:29:01.871Z,1008.34
2023-02-02T09:30:01.888Z,1008.38
2023-02-02T09:31:01.970Z,1008.35
2023-02-02T09:32:01.915Z,1008.32
2023-02-02T09:33:01.843Z,1008.31
2023-02-02T09:34:01.876Z,1008.34
2023-02-02T09:35:01.822Z,1008.40
2023-02-02T09:36:01.826Z,1008.42
2023-02-02T09:37:01.835Z,1008.45
2023-02-02T09:38:01.811Z,1008.46
2023-02-02T09:39:01.776Z,1008.50
2023-02-02T09:40:01.813Z,1008.53
2023-02-02T09:41:01.744Z,1008.54
2023-02-02T09:42:03.238Z,1008.54
2023-02-02T09:43:01.729Z,1008.53
2023-02-02T09:44:01.750Z,1008.53
2023-02-02T09:45:01.758Z,1008.49
2023-02-02T09:46:01.754Z,1008.51
2023-02-02T09:47:01.697Z,1008.56
2023-02-02T09:48:01.667Z,1008.59
2023-02-02T09:49:01.738Z,1008.60
2023-02-02T09:50:01.667Z,1008.58
2023-02-02T09:51:01.673Z,1008.59
2023-02-02T09:52:01.644Z,1008.56
2023-02-02T09:53:01.608Z,1008.57
2023-02-02T09:54:01.606Z,1008.63
2023-02-02T09:55:01.664Z,1008.63
2023-02-02T09:56:01.596Z,1008.65
2023-02-02T09:57:01.621Z,1008.61
2023-02-02T09:58:01.649Z,1008.68
2023-02-02T09:59:13.783Z,1008.70
2023-02-02T10:00:01.624Z,1008.72
2023-02-02T10:01:01.582Z,1008.76
2023-02-02T10:02:01.629Z,1008.79
2023-02-02T10:03:01.511Z,1008.79
2023-02-02T10:04:01.709Z,1008.81
2023-02-02T10:05:01.548Z,1008.81
2023-02-02T10:06:01.553Z,1008.81
2023-02-02T10:07:01.479Z,1008.81
2023-02-02T10:08:01.503Z,1008.83
2023-02-02T10:09:01.466Z,1008.88
2023-02-02T10:10:03.213Z,1008.90
2023-02-02T10:11:01.597Z,1008.92
2023-02-02T10:12:01.491Z,1008.92
2023-02-02T10:13:01.405Z,1008.94
2023-02-02T10:14:01.377Z,1008.98
2023-02-02T10:15:01.467Z,1008.93
2023-02-02T10:16:01.859Z,1008.89
2023-02-02T10:17:01.429Z,1008.96
2023-02-02T10:18:01.416Z,1008.96
2023-02-02T10:19:01.369Z,1008.97
2023-02-02T10:20:01.343Z,1008.98
2023-02-02T10:21:01.362Z,1008.97
2023-02-02T10:22:01.341Z,1008.97
2023-02-02T10:23:01.361Z,1009.00
2023-02-02T10:24:02.394Z,1009.02
2023-02-02T10:25:01.273Z,1009.03
2023-02-02T10:26:01.346Z,1009.02
2023-02-02T10:27:01.293Z,1009.06
2023-02-02T10:28:01.250Z,1009.09
2023-02-02T10:29:01.274Z,1009.10
2023-02-02T10:30:01.245Z,1009.19
2023-02-02T10:31:01.421Z,1009.18
2023-02-02T10:32:01.247Z,1009.12
2023-02-02T10:33:01.600Z,1009.09
2023-02-02T10:34:01.191Z,1009.13
2023-02-02T10:35:13.147Z,1009.13
2023-02-02T10:36:01.199Z,1009.10
2023-02-02T10:37:01.134Z,1009.12
2023-02-02T10:38:01.175Z,1009.11
2023-02-02T10:39:01.176Z,1009.13
2023-02-02T10:40:01.235Z,1009.12
2023-02-02T10:41:01.128Z,1009.12
2023-02-02T10:42:01.123Z,1009.11
2023-02-02T10:43:01.108Z,1009.17
2023-02-02T10:44:01.093Z,1009.17
2023-02-02T10:45:01.134Z,1009.17
2023-02-02T10:46:01.081Z,1009.19
2023-02-02T10:47:01.035Z,1009.16
2023-02-02T10:48:01.049Z,1009.19
2023-02-02T10:49:01.890Z,1009.18
2023-02-02T10:50:01.128Z,1009.18
2023-02-02T10:51:00.997Z,1009.17
2023-02-02T10:52:01.004Z,1009.17
2023-02-02T10:53:01.023Z,1009.20
2023-02-02T10:54:01.054Z,1009.21
2023-02-02T10:55:04.030Z,1009.21
2023-02-02T10:56:00.985Z,1009.23
2023-02-02T10:57:01.952Z,1009.24
2023-02-02T10:58:00.969Z,1009.22
2023-02-02T10:59:00.948Z,1009.22
2023-02-02T11:00:01.034Z,1009.23
2023-02-02T11:01:00.963Z,1009.20
2023-02-02T11:02:11.737Z,1009.20
2023-02-02T11:03:00.938Z,1009.23
2023-02-02T11:04:00.887Z,1009.24
2023-02-02T11:05:00.892Z,1009.20
2023-02-02T11:06:00.846Z,1009.19
2023-02-02T11:07:01.705Z,1009.24
2023-02-02T11:08:00.856Z,1009.21
2023-02-02T11:09:00.832Z,1009.23
2023-02-02T11:10:00.899Z,1009.24
2023-02-02T11:11:00.832Z,1009.25
2023-02-02T11:12:00.780Z,1009.28
2023-02-02T11:13:02.006Z,1009.24
2023-02-02T11:14:00.823Z,1009.28
2023-02-02T11:15:00.802Z,1009.27
2023-02-02T11:16:05.541Z,1009.26
2023-02-02T11:17:00.726Z,1009.25
2023-02-02T11:18:00.724Z,1009.23
2023-02-02T11:19:00.819Z,1009.22
2023-02-02T11:20:00.757Z,1009.20
2023-02-02T11:21:00.858Z,1009.19
2023-02-02T11:22:00.813Z,1009.22
2023-02-02T11:23:00.737Z,1009.25
2023-02-02T11:24:00.848Z,1009.24
2023-02-02T11:25:00.715Z,1009.23
2023-02-02T11:26:00.667Z,1009.25
2023-02-02T11:27:00.611Z,1009.22
2023-02-02T11:28:00.693Z,1009.19
2023-02-02T11:29:01.141Z,1009.20
2023-02-02T11:30:00.603Z,1009.20
2023-02-02T11:31:00.835Z,1009.22
2023-02-02T11:32:00.673Z,1009.25
2023-02-02T11:33:00.568Z,1009.23
2023-02-02T11:34:00.580Z,1009.28
2023-02-02T11:35:00.538Z,1009.26
2023-02-02T11:36:00.562Z,1009.25
2023-02-02T11:37:00.552Z,1009.28
2023-02-02T11:38:00.512Z,1009.28
2023-02-02T11:39:00.565Z,1009.27
2023-02-02T11:40:00.498Z,1009.27
2023-02-02T11:41:00.537Z,1009.29
2023-02-02T11:42:00.527Z,1009.31
2023-02-02T11:43:00.474Z,1009.31
2023-02-02T11:44:00.460Z,1009.33
2023-02-02T11:45:00.521Z,1009.37
2023-02-02T11:46:02.843Z,1009.33
2023-02-02T11:47:00.511Z,1009.34
2023-02-02T11:48:00.421Z,1009.34
2023-02-02T11:49:00.447Z,1009.35
2023-02-02T11:50:00.400Z,1009.36
2023-02-02T11:51:00.464Z,1009.34
2023-02-02T11:52:00.362Z,1009.33
2023-02-02T11:53:00.341Z,1009.36
2023-02-02T11:54:00.346Z,1009.35
2023-02-02T11:55:00.372Z,1009.36
2023-02-02T11:56:00.300Z,1009.38
2023-02-02T11:57:00.318Z,1009.39
2023-02-02T11:58:00.305Z,1009.36
2023-02-02T11:59:00.287Z,1009.37
2023-02-02T12:00:00.264Z,1009.36
2023-02-02T12:01:00.274Z,1009.34
2023-02-02T12:02:00.365Z,1009.35
2023-02-02T12:03:00.267Z,1009.35
2023-02-02T12:04:00.291Z,1009.37
2023-02-02T12:05:00.219Z,1009.34